Time;durP1;ratioP1;P1;durP2;ratioP2;P2;SDS_P1;SDS_P2;PMS_P1;PMS_P2;Temp;Humidity;BMP_temperature;BMP_pressure;BME280_temperature;BME280_humidity;BME280_pressure;Samples;Min_cycle;Max_cycle;Signal;HPM_P1;HPM_P2
2023/05/28 00:01:49;;;;;;;0.30;0.30;;;;;;;12.41;64.48;100932.34;5126275;28;20055;-62
2023/05/28 00:04:16;;;;;;;0.30;0.30;;;;;;;12.32;64.36;100934.13;5126231;28;20019;-61
2023/05/28 00:06:41;;;;;;;0.55;0.55;;;;;;;12.28;64.72;100927.25;5126236;28;20024;-62
2023/05/28 00:09:07;;;;;;;0.30;0.30;;;;;;;12.31;64.56;100936.75;5126117;28;20023;-61
2023/05/28 00:11:33;;;;;;;0.30;0.30;;;;;;;12.30;64.54;100942.84;5126461;28;20101;-61
2023/05/28 00:13:58;;;;;;;2.55;2.40;;;;;;;12.33;64.47;100933.25;5125848;28;20057;-60
2023/05/28 00:16:25;;;;;;;0.30;0.30;;;;;;;12.27;64.50;100931.56;5126107;28;20079;-60
2023/05/28 00:18:50;;;;;;;0.40;0.40;;;;;;;12.30;64.59;100924.63;5125791;28;20043;-60
2023/05/28 00:21:15;;;;;;;0.30;0.30;;;;;;;12.21;65.22;100926.41;5125825;28;20024;-61
2023/05/28 00:23:41;;;;;;;0.30;0.30;;;;;;;12.20;65.44;100926.41;5125613;28;20031;-60
2023/05/28 00:26:06;;;;;;;0.30;0.30;;;;;;;12.19;65.97;100927.31;5126023;28;20019;-60
2023/05/28 00:28:32;;;;;;;0.40;0.40;;;;;;;12.11;66.73;100930.81;5125778;28;20506;-60
2023/05/28 00:30:57;;;;;;;0.50;0.50;;;;;;;12.10;66.92;100925.63;5125847;28;20073;-61
2023/05/28 00:33:23;;;;;;;2.30;2.17;;;;;;;12.04;67.71;100926.50;5125669;28;20087;-60
2023/05/28 00:35:54;;;;;;;0.30;0.30;;;;;;;11.97;68.25;100923.06;5125619;28;20031;-59
2023/05/28 00:38:20;;;;;;;0.40;0.40;;;;;;;11.84;68.50;100898.84;5125532;28;20024;-61
2023/05/28 00:40:45;;;;;;;0.40;0.40;;;;;;;11.85;68.56;100897.97;5125483;28;20107;-60
2023/05/28 00:43:11;;;;;;;0.80;0.80;;;;;;;11.88;69.04;100897.09;5125774;28;20020;-61
2023/05/28 00:45:36;;;;;;;0.30;0.30;;;;;;;11.89;69.40;100904.03;5125429;28;20027;-60
2023/05/28 00:48:02;;;;;;;0.30;0.30;;;;;;;11.86;69.73;100901.44;5125543;28;20026;-61
2023/05/28 00:50:28;;;;;;;0.30;0.30;;;;;;;11.81;69.98;100893.66;5125557;28;20375;-61
2023/05/28 00:52:54;;;;;;;0.30;0.30;;;;;;;11.80;70.21;100897.16;5125460;28;20027;-61
2023/05/28 00:55:20;;;;;;;0.30;0.30;;;;;;;11.78;70.38;100888.47;5125346;28;20096;-61
2023/05/28 00:57:47;;;;;;;0.30;0.30;;;;;;;11.73;70.94;100896.31;5125406;28;20503;-60
2023/05/28 01:00:13;;;;;;;0.30;0.30;;;;;;;11.74;71.04;100894.59;5125343;28;20027;-60
2023/05/28 01:02:39;;;;;;;0.30;0.30;;;;;;;11.77;70.93;100894.56;5125392;28;20020;-60
2023/05/28 01:05:05;;;;;;;0.40;0.40;;;;;;;11.75;71.42;100889.38;5106830;28;20030;-60
2023/05/28 01:07:32;;;;;;;0.30;0.30;;;;;;;11.73;71.69;100887.63;5125006;28;20035;-60
2023/05/28 01:09:58;;;;;;;0.38;0.38;;;;;;;11.75;71.66;100878.97;5125495;28;20037;-61
2023/05/28 01:12:25;;;;;;;0.30;0.30;;;;;;;11.75;71.99;100875.50;5125177;28;20035;-61
2023/05/28 01:14:52;;;;;;;0.70;0.70;;;;;;;11.75;72.07;100862.50;5125117;28;20023;-63
2023/05/28 01:17:18;;;;;;;0.30;0.30;;;;;;;11.75;72.32;100865.09;5125103;28;20020;-60
2023/05/28 01:19:47;;;;;;;0.38;0.38;;;;;;;11.71;72.62;100860.78;5125085;28;20047;-61
2023/05/28 01:22:17;;;;;;;0.32;0.32;;;;;;;11.72;73.20;100862.50;5124724;28;20030;-61
2023/05/28 01:24:44;;;;;;;0.90;0.90;;;;;;;11.67;73.52;100852.13;5123833;28;20016;-61
2023/05/28 01:27:11;;;;;;;0.60;0.60;;;;;;;11.56;73.54;100843.53;5124468;28;20096;-61
2023/05/28 01:29:36;;;;;;;0.47;0.47;;;;;;;11.69;73.71;100852.13;5124217;28;20061;-61
2023/05/28 01:32:02;;;;;;;0.40;0.40;;;;;;;11.70;73.63;100854.72;5125474;28;20031;-60
2023/05/28 01:34:28;;;;;;;0.50;0.50;;;;;;;11.74;73.55;100848.59;5128351;28;20087;-61
2023/05/28 01:37:07;;;;;;;0.30;0.30;;;;;;;11.77;73.65;100852.94;5128288;28;20030;-61
2023/05/28 01:39:38;;;;;;;0.30;0.30;;;;;;;11.78;73.60;100849.47;5127990;28;20024;-61
2023/05/28 01:42:05;;;;;;;0.30;0.30;;;;;;;11.80;73.48;100847.72;5127857;28;20071;-61
2023/05/28 01:44:31;;;;;;;0.75;0.75;;;;;;;11.82;73.60;100845.09;5127953;28;20024;-60
2023/05/28 01:46:57;;;;;;;0.40;0.40;;;;;;;11.83;73.88;100846.81;5109702;28;20091;-62
2023/05/28 01:49:23;;;;;;;0.40;0.40;;;;;;;11.86;73.87;100841.59;5128082;28;20098;-60
2023/05/28 01:51:51;;;;;;;0.40;0.40;;;;;;;11.83;74.71;100832.09;5109412;28;20023;-61
2023/05/28 01:54:17;;;;;;;0.30;0.30;;;;;;;11.85;74.25;100832.09;5127864;28;20023;-62
2023/05/28 01:56:42;;;;;;;0.30;0.30;;;;;;;11.87;74.33;100831.19;5128054;28;20489;-61
2023/05/28 01:59:07;;;;;;;0.30;0.30;;;;;;;11.87;74.16;100828.59;5127725;28;20024;-61
2023/05/28 02:01:35;;;;;;;0.40;0.40;;;;;;;11.89;74.37;100832.03;5127924;28;20029;-60
2023/05/28 02:04:01;;;;;;;0.30;0.30;;;;;;;11.88;74.68;100834.66;5127645;28;20423;-60
2023/05/28 02:06:29;;;;;;;0.30;0.30;;;;;;;11.88;74.47;100827.72;5127294;28;20023;-61
2023/05/28 02:08:55;;;;;;;0.32;0.32;;;;;;;11.84;74.54;100823.41;5127436;28;20027;-60
2023/05/28 02:11:21;;;;;;;0.30;0.30;;;;;;;11.93;74.33;100827.69;5127676;28;20023;-61
2023/05/28 02:13:48;;;;;;;0.30;0.30;;;;;;;11.88;74.24;100830.34;5127409;28;20019;-60
2023/05/28 02:16:17;;;;;;;0.30;0.30;;;;;;;11.81;74.06;100818.22;5127384;28;20027;-61
2023/05/28 02:18:45;;;;;;;1.45;1.38;;;;;;;11.86;74.08;100824.25;5108920;28;20087;-60
2023/05/28 02:21:11;;;;;;;0.30;0.30;;;;;;;11.85;74.02;100832.91;5127493;28;20031;-61
2023/05/28 02:23:44;;;;;;;0.40;0.40;;;;;;;11.82;73.95;100816.50;5126901;28;20343;-60
2023/05/28 02:26:10;;;;;;;0.30;0.30;;;;;;;11.82;74.13;100824.31;5127172;28;20039;-60
2023/05/28 02:28:35;;;;;;;5.82;2.70;;;;;;;11.78;74.10;100818.25;5127065;28;20045;-60
2023/05/28 02:31:01;;;;;;;1.05;0.65;;;;;;;11.83;74.06;100823.41;5127182;28;20057;-60
2023/05/28 02:33:27;;;;;;;0.40;0.40;;;;;;;11.82;73.87;100812.13;5126999;28;20055;-61
2023/05/28 02:35:53;;;;;;;0.32;0.32;;;;;;;11.81;73.78;100815.63;5127134;28;20539;-59
2023/05/28 02:38:19;;;;;;;0.40;0.40;;;;;;;11.87;73.98;100825.97;5126817;28;20074;-61
2023/05/28 02:40:44;;;;;;;0.40;0.40;;;;;;;11.85;74.08;100816.47;5127075;28;20092;-61
2023/05/28 02:43:10;;;;;;;0.30;0.30;;;;;;;11.82;74.54;100819.09;5125798;28;20045;-60
2023/05/28 02:45:35;;;;;;;0.40;0.40;;;;;;;11.80;74.72;100810.44;5126461;28;20027;-60
2023/05/28 02:48:00;;;;;;;0.40;0.40;;;;;;;11.76;75.08;100826.06;5126928;28;20023;-62
2023/05/28 02:50:26;;;;;;;0.45;0.45;;;;;;;11.71;75.28;100830.41;5126704;28;20027;-61
2023/05/28 02:52:51;;;;;;;0.40;0.40;;;;;;;11.75;75.23;100823.47;5126713;28;20020;-61
2023/05/28 02:55:17;;;;;;;0.40;0.40;;;;;;;11.77;75.09;100826.94;5127013;28;20015;-61
2023/05/28 02:57:42;;;;;;;0.50;0.50;;;;;;;11.75;75.01;100813.94;5126741;28;20024;-61
2023/05/28 03:00:09;;;;;;;0.40;0.40;;;;;;;11.79;75.07;100825.16;5126721;28;20058;-60
2023/05/28 03:02:35;;;;;;;0.40;0.40;;;;;;;11.81;74.81;100823.44;5126589;28;20031;-60
2023/05/28 03:05:02;;;;;;;0.40;0.40;;;;;;;11.85;74.65;100819.06;5126228;28;20020;-60
2023/05/28 03:07:31;;;;;;;0.40;0.40;;;;;;;11.87;74.53;100828.59;5126482;28;20024;-60
2023/05/28 03:09:57;;;;;;;0.50;0.50;;;;;;;11.94;74.11;100824.22;5126321;28;20038;-61
2023/05/28 03:12:23;;;;;;;0.40;0.40;;;;;;;11.90;73.99;100823.34;5126465;28;20351;-61
2023/05/28 03:14:49;;;;;;;0.30;0.30;;;;;;;11.95;74.00;100831.13;5126399;28;20416;-60
2023/05/28 03:17:15;;;;;;;0.30;0.30;;;;;;;11.99;73.53;100829.38;5126427;28;20264;-62
2023/05/28 03:19:40;;;;;;;1.58;1.58;;;;;;;11.96;73.06;100829.41;5126083;28;20423;-61
2023/05/28 03:22:05;;;;;;;0.40;0.40;;;;;;;11.95;72.98;100820.72;5126376;28;20023;-60
2023/05/28 03:24:31;;;;;;;0.40;0.40;;;;;;;11.93;72.68;100827.69;5125758;28;20024;-61
2023/05/28 03:26:59;;;;;;;1.05;1.05;;;;;;;11.83;72.72;100821.69;5125979;28;20123;-60
2023/05/28 03:29:25;;;;;;;0.40;0.40;;;;;;;11.86;72.65;100837.28;5125972;28;20023;-60
2023/05/28 03:31:50;;;;;;;0.40;0.40;;;;;;;11.90;72.57;100830.31;5126020;28;20075;-60
2023/05/28 03:34:16;;;;;;;0.30;0.30;;;;;;;11.93;72.31;100822.50;5125913;28;20058;-61
2023/05/28 03:36:41;;;;;;;0.40;0.40;;;;;;;11.84;72.43;100818.19;5125946;28;20043;-60
2023/05/28 03:39:08;;;;;;;0.65;0.65;;;;;;;12.05;72.82;100829.31;5125679;28;20024;-60
2023/05/28 03:41:35;;;;;;;0.30;0.30;;;;;;;12.30;73.24;100829.13;5125859;28;20051;-61
2023/05/28 03:44:00;;;;;;;0.30;0.30;;;;;;;12.44;72.44;100829.03;5125773;28;20024;-61
2023/05/28 03:46:26;;;;;;;0.32;0.32;;;;;;;12.47;71.98;100829.00;5125680;28;20506;-61
2023/05/28 03:48:51;;;;;;;0.40;0.40;;;;;;;12.52;71.53;100832.41;5125586;28;20145;-60
2023/05/28 03:51:16;;;;;;;0.40;0.40;;;;;;;12.50;71.59;100818.56;5125627;28;20028;-60
2023/05/28 03:53:42;;;;;;;0.30;0.30;;;;;;;12.51;71.78;100829.81;5125389;28;20016;-60
2023/05/28 03:56:07;;;;;;;0.30;0.30;;;;;;;12.45;72.06;100822.94;5125095;28;20031;-60
2023/05/28 03:58:33;;;;;;;0.40;0.40;;;;;;;12.47;72.03;100828.13;5125456;28;20022;-60
2023/05/28 04:00:59;;;;;;;0.30;0.30;;;;;;;12.49;72.48;100827.22;5125420;28;20027;-61
2023/05/28 04:03:25;;;;;;;0.30;0.30;;;;;;;12.87;73.88;100824.25;5125645;28;20034;-60
2023/05/28 04:05:51;;;;;;;0.30;0.30;;;;;;;13.53;72.82;100826.09;5125304;28;20023;-62
2023/05/28 04:08:17;;;;;;;0.30;0.30;;;;;;;14.07;70.10;100825.28;5125386;28;20503;-62
2023/05/28 04:10:42;;;;;;;0.75;0.75;;;;;;;14.55;68.73;100822.72;5125337;28;20088;-62
2023/05/28 04:13:08;;;;;;;0.30;0.30;;;;;;;14.92;66.88;100821.19;5106808;28;20045;-61
2023/05/28 04:15:33;;;;;;;0.93;0.93;;;;;;;15.30;65.91;100805.59;5125419;28;20024;-61
2023/05/28 04:17:59;;;;;;;0.35;0.35;;;;;;;15.53;65.30;100818.16;5125417;28;20607;-62
2023/05/28 04:20:24;;;;;;;0.20;0.20;;;;;;;15.71;63.52;100822.09;5124931;28;20040;-60
2023/05/28 04:22:50;;;;;;;0.30;0.30;;;;;;;15.89;62.83;100834.78;5124894;28;20400;-61
2023/05/28 04:25:18;;;;;;;0.82;0.50;;;;;;;15.82;61.52;100824.47;5106682;28;20043;-62
2023/05/28 04:27:44;;;;;;;0.30;0.30;;;;;;;15.72;61.73;100820.31;5125040;28;20019;-61
2023/05/28 04:30:11;;;;;;;0.50;0.50;;;;;;;15.71;61.85;100823.84;5125040;28;20019;-60
2023/05/28 04:32:39;;;;;;;0.30;0.30;;;;;;;15.61;60.80;100821.44;5125143;28;20015;-61
2023/05/28 04:35:05;;;;;;;3.33;3.00;;;;;;;15.38;60.84;100826.34;5124841;28;20515;-59
2023/05/28 04:37:32;;;;;;;0.30;0.30;;;;;;;15.14;61.37;100831.19;5124889;28;20030;-61
2023/05/28 04:39:58;;;;;;;0.30;0.30;;;;;;;14.80;61.89;100835.34;5124618;28;20020;-61
2023/05/28 04:42:24;;;;;;;0.77;0.77;;;;;;;14.56;62.49;100825.31;5124943;28;20467;-61
2023/05/28 04:44:49;;;;;;;1.10;1.10;;;;;;;14.20;63.31;100832.91;5124771;28;20024;-62
2023/05/28 04:47:15;;;;;;;0.30;0.30;;;;;;;13.89;64.16;100815.97;5124734;28;20031;-60
2023/05/28 04:49:40;;;;;;;0.30;0.30;;;;;;;13.78;64.75;100837.03;5124798;28;20028;-61
2023/05/28 04:52:06;;;;;;;0.30;0.30;;;;;;;13.65;65.01;100818.06;5106469;28;20485;-60
2023/05/28 04:54:32;;;;;;;2.20;1.35;;;;;;;13.59;65.38;100818.16;5124572;28;20117;-62
2023/05/28 04:56:57;;;;;;;1.10;1.10;;;;;;;13.54;65.87;100828.66;5124533;28;20031;-61
2023/05/28 04:59:23;;;;;;;0.30;0.30;;;;;;;13.47;66.09;100829.59;5124571;28;20084;-61
2023/05/28 05:01:49;;;;;;;0.30;0.30;;;;;;;13.43;66.03;100831.41;5124600;28;20049;-61
2023/05/28 05:04:14;;;;;;;0.30;0.30;;;;;;;13.28;66.26;100822.03;5124515;28;20019;-61
2023/05/28 05:06:41;;;;;;;0.30;0.30;;;;;;;13.19;66.65;100827.34;5124964;28;20020;-61
2023/05/28 05:09:07;;;;;;;0.30;0.30;;;;;;;13.34;66.99;100824.53;5128740;28;20016;-61
2023/05/28 05:11:33;;;;;;;0.40;0.40;;;;;;;13.46;66.37;100825.28;5129054;28;20049;-61
2023/05/28 05:13:58;;;;;;;0.30;0.30;;;;;;;13.52;66.10;100822.59;5128769;28;20028;-60
2023/05/28 05:16:24;;;;;;;0.30;0.30;;;;;;;13.54;65.71;100826.06;5128744;28;20030;-62
2023/05/28 05:18:49;;;;;;;0.40;0.40;;;;;;;13.53;65.45;100833.91;5128480;28;20085;-61
2023/05/28 05:21:14;;;;;;;7.43;3.03;;;;;;;13.43;65.74;100833.13;5128612;28;20030;-61
2023/05/28 05:23:40;;;;;;;0.30;0.30;;;;;;;13.39;65.69;100843.59;5128334;28;20479;-62
2023/05/28 05:26:09;;;;;;;0.40;0.40;;;;;;;13.39;65.72;100832.31;5128641;28;20036;-61
2023/05/28 05:28:35;;;;;;;0.30;0.30;;;;;;;13.36;65.54;100838.44;5110111;28;20023;-61
2023/05/28 05:31:01;;;;;;;0.30;0.30;;;;;;;13.27;65.37;100855.03;5128485;28;20105;-62
2023/05/28 05:33:26;;;;;;;0.30;0.30;;;;;;;13.15;65.54;100852.59;5128570;28;20077;-60
2023/05/28 05:35:52;;;;;;;0.30;0.30;;;;;;;13.07;65.95;100839.66;5128156;28;20512;-61
2023/05/28 05:38:18;;;;;;;0.43;0.43;;;;;;;13.11;66.04;100843.97;5127936;28;20416;-61
2023/05/28 05:40:43;;;;;;;0.30;0.30;;;;;;;13.02;66.37;100849.25;5128364;28;20031;-61
2023/05/28 05:43:09;;;;;;;0.30;0.30;;;;;;;13.02;66.90;100857.09;5128208;28;20016;-61
2023/05/28 05:45:34;;;;;;;0.30;0.30;;;;;;;13.12;67.21;100856.09;5128097;28;20031;-60
2023/05/28 05:48:00;;;;;;;0.30;0.30;;;;;;;13.73;65.48;100852.75;5128058;28;20031;-61
2023/05/28 05:50:25;;;;;;;0.30;0.30;;;;;;;14.67;64.08;100847.75;5128136;28;20019;-60
2023/05/28 05:52:50;;;;;;;0.20;0.20;;;;;;;15.78;60.38;100853.38;5127834;28;20016;-60
2023/05/28 05:55:16;;;;;;;0.60;0.60;;;;;;;16.05;57.76;100851.91;5127971;28;20032;-59
2023/05/28 05:57:42;;;;;;;0.77;0.77;;;;;;;15.88;55.84;100848.78;5109559;28;20024;-62
2023/05/28 06:00:10;;;;;;;0.20;0.20;;;;;;;15.57;55.45;100866.03;5127825;28;20024;-61
2023/05/28 06:02:38;;;;;;;0.30;0.30;;;;;;;15.61;56.62;100860.72;5128131;28;20030;-61
2023/05/28 06:05:05;;;;;;;0.28;0.28;;;;;;;15.82;54.89;100871.59;5127362;28;20024;-60
2023/05/28 06:07:31;;;;;;;0.30;0.30;;;;;;;16.06;54.62;100861.47;5127618;28;20027;-60
2023/05/28 06:09:56;;;;;;;0.20;0.20;;;;;;;16.46;52.15;100872.72;5127522;28;20051;-62
2023/05/28 06:12:22;;;;;;;0.68;0.68;;;;;;;16.87;49.11;100871.63;5127426;28;20015;-60
2023/05/28 06:14:47;;;;;;;0.50;0.50;;;;;;;17.26;48.45;100869.72;5127686;28;20016;-61
2023/05/28 06:17:13;;;;;;;0.30;0.30;;;;;;;17.88;47.81;100859.13;5127640;28;20027;-62
2023/05/28 06:19:38;;;;;;;0.20;0.20;;;;;;;18.18;45.83;100857.28;5127264;28;20130;-62
2023/05/28 06:22:04;;;;;;;0.20;0.20;;;;;;;17.95;45.07;100855.41;5127440;28;20043;-63
2023/05/28 06:24:30;;;;;;;0.20;0.20;;;;;;;17.48;44.48;100872.56;5126925;28;20023;-62
2023/05/28 06:26:55;;;;;;;0.20;0.20;;;;;;;17.52;43.57;100874.22;5127365;28;20054;-62
2023/05/28 06:29:21;;;;;;;0.68;0.68;;;;;;;17.91;43.52;100869.53;5127247;28;20047;-61
2023/05/28 06:31:46;;;;;;;0.30;0.30;;;;;;;18.68;44.06;100881.03;5127236;28;20051;-61
2023/05/28 06:34:12;;;;;;;0.50;0.50;;;;;;;19.06;43.13;100873.56;5127421;28;20498;-62
2023/05/28 06:36:38;;;;;;;0.30;0.30;;;;;;;19.03;41.46;100859.66;5127073;28;20034;-61
2023/05/28 06:39:04;;;;;;;0.20;0.20;;;;;;;18.79;40.14;100878.03;5126920;28;20019;-62
2023/05/28 06:41:30;;;;;;;0.22;0.22;;;;;;;18.63;41.54;100872.44;5127191;28;20658;-62
2023/05/28 06:43:55;;;;;;;0.30;0.30;;;;;;;18.58;42.27;100880.50;5126812;28;20032;-62
2023/05/28 06:46:21;;;;;;;0.30;0.30;;;;;;;18.98;40.75;100880.88;5126828;28;20034;-62
2023/05/28 06:48:46;;;;;;;0.20;0.20;;;;;;;18.94;40.25;100877.50;5108594;28;20119;-61
2023/05/28 06:51:12;;;;;;;0.30;0.30;;;;;;;18.82;40.00;100872.66;5126957;28;20481;-62
2023/05/28 06:53:38;;;;;;;0.28;0.28;;;;;;;18.55;40.69;100875.34;5126550;28;20022;-62
2023/05/28 06:56:05;;;;;;;0.20;0.20;;;;;;;18.50;39.04;100880.78;5127023;28;20022;-61
2023/05/28 06:58:30;;;;;;;1.85;1.75;;;;;;;18.60;39.86;100888.34;5126834;28;20024;-61
2023/05/28 07:00:56;;;;;;;0.20;0.20;;;;;;;18.70;38.87;100897.63;5126630;28;20020;-59
2023/05/28 07:03:21;;;;;;;0.20;0.20;;;;;;;18.83;39.87;100896.28;5108145;28;20030;-60
2023/05/28 07:05:47;;;;;;;0.82;0.82;;;;;;;18.60;39.19;100890.97;5126354;28;20024;-59
2023/05/28 07:08:13;;;;;;;0.50;0.50;;;;;;;18.60;39.91;100883.94;5126372;28;20024;-60
2023/05/28 07:10:38;;;;;;;0.20;0.20;;;;;;;18.48;40.22;100887.88;5126516;28;20024;-60
2023/05/28 07:13:04;;;;;;;0.20;0.20;;;;;;;18.18;40.39;100882.69;5126333;28;20061;-60
2023/05/28 07:15:29;;;;;;;0.93;0.93;;;;;;;17.76;40.94;100895.38;5126150;28;20012;-61
2023/05/28 07:17:55;;;;;;;0.20;0.20;;;;;;;17.67;41.08;100903.50;5126389;28;20107;-59
2023/05/28 07:20:20;;;;;;;0.20;0.20;;;;;;;17.79;41.43;100895.28;5126408;28;20048;-60
2023/05/28 07:22:46;;;;;;;0.20;0.20;;;;;;;18.24;40.97;100903.56;5107889;28;20106;-60
2023/05/28 07:25:11;;;;;;;0.20;0.20;;;;;;;18.85;40.33;100896.22;5125821;28;20110;-60
2023/05/28 07:27:37;;;;;;;0.40;0.40;;;;;;;18.73;38.28;100909.81;5126148;28;20113;-62
2023/05/28 07:30:03;;;;;;;0.50;0.50;;;;;;;18.37;39.22;100906.59;5125672;28;20081;-59
2023/05/28 07:32:28;;;;;;;0.30;0.30;;;;;;;18.70;38.81;100910.78;5126235;28;20026;-61
2023/05/28 07:34:53;;;;;;;0.70;0.70;;;;;;;18.72;39.41;100901.09;5125760;28;20091;-61
2023/05/28 07:37:19;;;;;;;0.75;0.75;;;;;;;19.13;38.06;100903.19;5126464;28;20046;-61
2023/05/28 07:39:45;;;;;;;1.15;1.10;;;;;;;19.57;37.83;100906.81;5126653;28;20045;-61
2023/05/28 07:42:10;;;;;;;0.47;0.47;;;;;;;19.59;38.24;100905.00;5126811;28;20047;-62
2023/05/28 07:44:36;;;;;;;0.25;0.25;;;;;;;19.52;38.88;100917.53;5126746;28;20031;-59
2023/05/28 07:47:01;;;;;;;0.30;0.30;;;;;;;19.44;38.16;100923.09;5126811;28;20027;-62
2023/05/28 07:49:27;;;;;;;0.95;0.95;;;;;;;19.28;37.03;100908.78;5126392;28;20459;-61
2023/05/28 07:51:52;;;;;;;24.13;2.35;;;;;;;19.14;38.66;100909.28;5126484;28;20028;-61
2023/05/28 07:54:17;;;;;;;0.20;0.20;;;;;;;19.50;38.08;100914.09;5126215;28;20016;-60
2023/05/28 07:56:43;;;;;;;0.30;0.30;;;;;;;19.56;37.80;100910.38;5126422;28;20043;-60
2023/05/28 07:59:09;;;;;;;0.20;0.20;;;;;;;19.31;37.47;100927.94;5126310;28;20035;-60
2023/05/28 08:01:34;;;;;;;0.40;0.40;;;;;;;18.78;37.39;100916.66;5126317;28;20020;-61
2023/05/28 08:04:00;;;;;;;0.20;0.20;;;;;;;18.09;38.35;100916.25;5126272;28;20034;-61
2023/05/28 08:06:26;;;;;;;0.52;0.52;;;;;;;17.84;38.62;100903.88;5126228;28;20050;-61
2023/05/28 08:08:51;;;;;;;0.95;0.95;;;;;;;17.87;38.82;100909.94;5126134;28;20249;-61
2023/05/28 08:11:17;;;;;;;0.20;0.20;;;;;;;17.95;39.35;100928.94;5126251;28;20031;-61
2023/05/28 08:13:43;;;;;;;0.30;0.30;;;;;;;18.52;38.62;100917.53;5126068;28;20020;-61
2023/05/28 08:16:12;;;;;;;0.30;0.30;;;;;;;18.30;38.19;100926.13;5126137;28;20030;-61
2023/05/28 08:18:38;;;;;;;0.30;0.30;;;;;;;18.52;38.96;100909.63;5125820;28;20032;-61
2023/05/28 08:21:05;;;;;;;0.20;0.20;;;;;;;18.87;38.45;100931.25;5126082;28;20028;-62
2023/05/28 08:23:34;;;;;;;0.30;0.30;;;;;;;18.67;37.88;100916.16;5125757;28;20588;-61
2023/05/28 08:26:01;;;;;;;0.20;0.20;;;;;;;18.08;38.47;100905.78;5125896;28;20034;-61
2023/05/28 08:28:28;;;;;;;0.20;0.20;;;;;;;17.79;39.52;100926.81;5126143;28;20356;-61
2023/05/28 08:30:54;;;;;;;0.20;0.20;;;;;;;18.02;40.25;100938.34;5126061;28;20042;-62
2023/05/28 08:33:19;;;;;;;0.30;0.30;;;;;;;17.81;40.20;100926.75;5125900;28;20024;-60
2023/05/28 08:35:45;;;;;;;1.05;1.05;;;;;;;17.72;40.83;100914.75;5125599;28;20080;-60
2023/05/28 08:38:10;;;;;;;0.22;0.22;;;;;;;17.59;41.10;100933.50;5125693;28;20031;-61
2023/05/28 08:40:40;;;;;;;0.20;0.20;;;;;;;17.40;41.44;100932.31;5125701;28;20051;-61
2023/05/28 08:43:07;;;;;;;0.20;0.20;;;;;;;17.32;41.55;100932.53;5125743;28;20028;-62
2023/05/28 08:45:34;;;;;;;0.30;0.30;;;;;;;17.17;41.95;100920.72;5125603;28;20055;-61
2023/05/28 08:48:00;;;;;;;0.30;0.30;;;;;;;17.20;41.77;100912.75;5125576;28;20032;-61
2023/05/28 08:50:27;;;;;;;0.20;0.20;;;;;;;17.76;42.26;100916.38;5125586;28;20035;-61
2023/05/28 08:52:53;;;;;;;0.20;0.20;;;;;;;18.25;41.11;100907.88;5125730;28;20030;-62
2023/05/28 08:55:19;;;;;;;0.45;0.45;;;;;;;18.41;40.43;100917.88;5125320;28;20020;-60
2023/05/28 08:57:46;;;;;;;0.20;0.20;;;;;;;18.36;40.69;100919.81;5124757;28;20055;-62
2023/05/28 09:00:12;;;;;;;0.30;0.30;;;;;;;18.50;40.71;100914.94;5124299;28;20024;-61
2023/05/28 09:02:38;;;;;;;0.20;0.20;;;;;;;18.87;39.99;100910.19;5124178;28;20437;-61
2023/05/28 09:05:05;;;;;;;0.20;0.20;;;;;;;19.11;39.61;100915.53;5124490;28;20098;-61
2023/05/28 09:07:30;;;;;;;0.20;0.20;;;;;;;19.53;39.26;100910.50;5124443;28;20065;-61
2023/05/28 09:09:57;;;;;;;0.20;0.20;;;;;;;19.59;38.83;100923.41;5124304;28;20019;-62
2023/05/28 09:12:23;;;;;;;0.75;0.75;;;;;;;19.92;38.19;100916.91;5124503;28;20035;-61
2023/05/28 09:14:53;;;;;;;0.20;0.20;;;;;;;20.13;37.91;100909.94;5124602;28;20097;-62
2023/05/28 09:17:38;;;;;;;0.20;0.20;;;;;;;20.83;37.35;100906.16;5123912;28;20024;-62
2023/05/28 09:20:13;;;;;;;0.75;0.75;;;;;;;21.57;35.88;100910.81;5124196;28;20052;-63
2023/05/28 09:22:39;;;;;;;0.20;0.20;;;;;;;21.90;34.50;100889.91;5124091;28;20430;-61
2023/05/28 09:25:08;;;;;;;0.20;0.20;;;;;;;22.40;34.43;100898.03;5124252;28;20040;-61
2023/05/28 09:27:35;;;;;;;0.20;0.20;;;;;;;22.98;34.07;100895.13;5124076;28;20032;-62
2023/05/28 09:30:07;;;;;;;27.95;1.58;;;;;;;23.75;33.21;100898.97;5123817;28;20023;-62
2023/05/28 09:32:37;;;;;;;0.20;0.20;;;;;;;24.09;31.90;100889.06;5124257;28;20408;-60
2023/05/28 09:35:07;;;;;;;1.55;1.48;;;;;;;24.12;31.06;100903.97;5124146;28;20011;-60
2023/05/28 09:37:34;;;;;;;2.55;1.33;;;;;;;24.12;30.82;100883.59;5124332;28;20080;-63
2023/05/28 09:40:03;;;;;;;0.20;0.20;;;;;;;24.26;31.11;100903.19;5123984;28;20091;-61
2023/05/28 09:42:38;;;;;;;0.25;0.25;;;;;;;24.10;29.97;100893.44;5123971;28;20079;-61
2023/05/28 09:45:04;;;;;;;0.57;0.57;;;;;;;23.80;29.80;100904.00;5124146;28;20024;-61
2023/05/28 09:47:29;;;;;;;0.20;0.20;;;;;;;23.72;30.39;100897.34;5124026;28;20026;-60
2023/05/28 09:49:54;;;;;;;0.15;0.15;;;;;;;24.00;30.77;100906.38;5124113;28;20031;-62
2023/05/28 09:52:22;;;;;;;0.40;0.40;;;;;;;23.83;30.12;100919.75;5124114;27;20019;-62
2023/05/28 09:54:52;;;;;;;1.20;1.10;;;;;;;23.06;31.25;100915.91;5127807;28;20027;-61
2023/05/28 09:57:22;;;;;;;0.30;0.30;;;;;;;23.07;31.16;100911.47;5127877;28;20035;-62
2023/05/28 09:59:53;;;;;;;0.20;0.20;;;;;;;23.43;31.28;100918.38;5127724;28;20463;-60
2023/05/28 10:02:37;;;;;;;0.57;0.57;;;;;;;23.39;30.57;100903.59;5109706;28;20028;-59
2023/05/28 10:05:06;;;;;;;0.13;0.13;;;;;;;22.43;31.66;100915.53;5127356;28;20073;-59
2023/05/28 10:07:34;;;;;;;0.10;0.10;;;;;;;21.92;32.74;100913.59;5127437;28;20032;-59
2023/05/28 10:10:03;;;;;;;0.20;0.20;;;;;;;22.36;32.79;100911.50;5127363;28;20463;-59
2023/05/28 10:12:30;;;;;;;0.10;0.10;;;;;;;22.67;31.44;100903.84;5127465;28;20023;-60
2023/05/28 10:14:56;;;;;;;1.55;1.50;;;;;;;22.45;31.41;100908.38;5127731;28;20015;-59
2023/05/28 10:17:22;;;;;;;0.20;0.20;;;;;;;22.39;31.44;100903.41;5127480;28;20300;-59
2023/05/28 10:19:47;;;;;;;0.43;0.43;;;;;;;22.38;31.51;100904.34;5127137;28;20126;-59
2023/05/28 10:22:15;;;;;;;0.20;0.20;;;;;;;22.09;32.30;100914.59;5127102;28;20023;-60
2023/05/28 10:24:42;;;;;;;0.20;0.20;;;;;;;21.91;31.68;100922.47;5126993;28;20020;-59
2023/05/28 10:27:12;;;;;;;0.20;0.20;;;;;;;20.90;33.25;100920.81;5126949;28;20027;-60
2023/05/28 10:29:42;;;;;;;0.20;0.20;;;;;;;20.49;33.99;100928.72;5127378;28;20016;-60
2023/05/28 10:32:08;;;;;;;4.70;2.05;;;;;;;20.22;34.30;100929.81;5126981;28;20016;-59
2023/05/28 10:34:36;;;;;;;0.20;0.20;;;;;;;19.90;34.93;100931.91;5127113;28;20086;-59
2023/05/28 10:37:09;;;;;;;2.05;1.52;;;;;;;20.40;35.41;100925.53;5126888;28;20027;-59
2023/05/28 10:39:41;;;;;;;0.35;0.35;;;;;;;21.32;33.85;100922.53;5127044;28;20023;-57
2023/05/28 10:42:09;;;;;;;2.05;1.95;;;;;;;21.28;33.29;100925.31;5127445;28;20026;-59
2023/05/28 10:45:04;;;;;;;1.35;1.10;;;;;;;20.77;34.56;100925.75;5126804;28;20364;-58
2023/05/28 10:47:35;;;;;;;0.20;0.20;;;;;;;20.24;34.59;100935.00;5117700;28;20031;-59
2023/05/28 10:50:14;;;;;;;0.30;0.30;;;;;;;20.87;34.88;100931.50;5108696;28;20027;-59
2023/05/28 10:52:41;;;;;;;0.20;0.20;;;;;;;21.43;33.56;100938.75;5126867;28;20050;-60
2023/05/28 10:55:08;;;;;;;0.20;0.20;;;;;;;21.57;32.92;100930.19;5126666;28;20045;-60
2023/05/28 10:57:47;;;;;;;0.20;0.20;;;;;;;21.26;34.15;100932.44;5126683;28;20031;-60
2023/05/28 11:00:23;;;;;;;0.20;0.20;;;;;;;21.17;34.84;100932.88;5108475;28;20110;-59
2023/05/28 11:02:51;;;;;;;0.20;0.20;;;;;;;20.89;33.08;100936.72;5126919;28;20032;-59
2023/05/28 11:05:25;;;;;;;0.20;0.20;;;;;;;20.29;33.30;100933.91;5124944;28;20020;-58
2023/05/28 11:07:51;;;;;;;7.03;2.20;;;;;;;19.89;34.12;100932.84;5126518;28;20031;-59
2023/05/28 11:10:16;;;;;;;0.30;0.30;;;;;;;19.55;35.24;100943.75;5126189;28;20031;-59
2023/05/28 11:12:43;;;;;;;0.20;0.20;;;;;;;19.30;36.13;100946.44;5126309;28;20029;-58
2023/05/28 11:15:13;;;;;;;0.20;0.20;;;;;;;19.22;36.03;100940.59;5126243;28;20016;-59
2023/05/28 11:17:43;;;;;;;0.20;0.20;;;;;;;18.77;36.76;100935.94;5127084;28;20034;-60
2023/05/28 11:20:18;;;;;;;0.20;0.20;;;;;;;18.47;37.54;100936.09;5126901;28;20495;-60
2023/05/28 11:22:44;;;;;;;0.30;0.30;;;;;;;18.17;38.22;100944.94;5127261;28;20136;-61